Time;durP1;ratioP1;P1;durP2;ratioP2;P2;SDS_P1;SDS_P2;PMS_P1;PMS_P2;Temp;Humidity;BMP_temperature;BMP_pressure;BME280_temperature;BME280_humidity;BME280_pressure;Samples;Min_cycle;Max_cycle;Signal;HPM_P1;HPM_P2
2023/08/21 00:01:38;;;;;;;8.07;6.60;;;;;;;;;;4858856;29;20241;-73
2023/08/21 00:04:05;;;;;;;10.73;6.83;;;;;;;;;;4875184;29;20279;-73
2023/08/21 00:06:32;;;;;;;7.90;6.83;;;;;;;;;;4890239;29;20219;-72
2023/08/21 00:09:00;;;;;;;8.00;6.60;;;;;;;;;;4890853;29;20196;-73
2023/08/21 00:11:27;;;;;;;7.63;6.80;;;;;;;;;;4887154;29;20181;-73
2023/08/21 00:13:54;;;;;;;8.53;6.60;;;;;;;;;;4889724;29;20203;-72
2023/08/21 00:16:38;;;;;;;8.83;6.33;;;;;;;;;;4890973;29;20224;-72
2023/08/21 00:19:04;;;;;;;8.37;6.77;;;;;;;;;;4892292;29;20219;-72
2023/08/21 00:21:31;;;;;;;7.67;6.60;;;;;;;;;;4891576;29;20188;-72
2023/08/21 00:23:58;;;;;;;7.43;6.47;;;;;;;;;;4890889;29;20559;-72
2023/08/21 00:26:24;;;;;;;10.83;7.00;;;;;;;;;;4887241;29;20191;-73
2023/08/21 00:28:51;;;;;;;9.20;6.77;;;;;;;;;;4906668;29;20196;-73
2023/08/21 00:31:18;;;;;;;9.00;7.20;;;;;;;;;;4892119;29;20207;-72
2023/08/21 00:33:45;;;;;;;8.00;7.20;;;;;;;;;;4887591;29;20196;-72
2023/08/21 00:36:12;;;;;;;9.37;8.13;;;;;;;;;;4881219;29;20204;-73
2023/08/21 00:38:40;;;;;;;10.23;8.13;;;;;;;;;;4890800;29;20663;-72
2023/08/21 00:41:06;;;;;;;9.63;7.97;;;;;;;;;;4891782;29;20184;-72
2023/08/21 00:43:33;;;;;;;11.20;8.60;;;;;;;;;;4875329;29;20555;-72
2023/08/21 00:46:00;;;;;;;10.80;8.30;;;;;;;;;;4890512;29;20623;-72
2023/08/21 00:48:26;;;;;;;10.77;8.40;;;;;;;;;;4906183;29;20200;-72
2023/08/21 00:51:11;;;;;;;10.27;7.70;;;;;;;;;;4891271;29;20648;-72
2023/08/21 00:53:38;;;;;;;9.77;7.70;;;;;;;;;;4883512;29;20559;-72
2023/08/21 00:56:22;;;;;;;11.40;7.80;;;;;;;;;;4889276;29;20226;-73
2023/08/21 00:58:49;;;;;;;9.57;7.47;;;;;;;;;;4884330;29;20199;-73
2023/08/21 01:01:16;;;;;;;10.00;8.53;;;;;;;;;;4887510;29;20656;-72
2023/08/21 01:03:45;;;;;;;9.47;7.53;;;;;;;;;;4872784;29;20212;-72
2023/08/21 01:06:12;;;;;;;10.97;8.37;;;;;;;;;;4893080;29;20212;-72
2023/08/21 01:08:59;;;;;;;9.07;7.60;;;;;;;;;;4893585;29;20276;-73
2023/08/21 01:46:49;;;;;;;9.20;6.60;;;;;;;;;;4891946;29;20196;-72
2023/08/21 01:49:18;;;;;;;10.33;6.50;;;;;;;;;;4890578;29;20295;-72
2023/08/21 01:51:46;;;;;;;8.47;6.03;;;;;;;;;;4894914;29;20223;-72
2023/08/21 01:54:13;;;;;;;7.90;5.67;;;;;;;;;;4893568;29;20192;-72
2023/08/21 01:56:57;;;;;;;7.73;5.63;;;;;;;;;;4902455;29;20579;-72
2023/08/21 01:59:24;;;;;;;8.40;6.10;;;;;;;;;;4909094;29;20196;-72
2023/08/21 02:01:51;;;;;;;7.57;5.57;;;;;;;;;;4893028;29;20299;-72
2023/08/21 02:04:18;;;;;;;8.10;5.43;;;;;;;;;;4893515;29;20207;-72
2023/08/21 02:06:45;;;;;;;8.17;5.77;;;;;;;;;;4894240;29;20659;-73
2023/08/21 02:09:12;;;;;;;7.33;5.53;;;;;;;;;;4891940;29;20999;-72
2023/08/21 02:11:38;;;;;;;7.20;5.30;;;;;;;;;;4874903;29;20225;-72
2023/08/21 02:14:05;;;;;;;6.07;4.97;;;;;;;;;;4888868;29;20220;-72
2023/08/21 02:16:32;;;;;;;7.53;5.30;;;;;;;;;;4891427;29;20242;-72
2023/08/21 02:18:59;;;;;;;9.00;6.00;;;;;;;;;;4889557;29;20564;-72
2023/08/21 02:21:26;;;;;;;8.27;5.67;;;;;;;;;;4876887;29;20196;-72
2023/08/21 02:23:52;;;;;;;6.63;5.07;;;;;;;;;;4874981;29;20197;-72
2023/08/21 02:26:19;;;;;;;7.30;5.37;;;;;;;;;;4889664;29;20196;-72
2023/08/21 02:28:47;;;;;;;6.17;5.13;;;;;;;;;;4876701;29;20200;-73
2023/08/21 02:31:32;;;;;;;9.20;6.67;;;;;;;;;;4892615;29;20257;-72
2023/08/21 02:33:59;;;;;;;6.77;5.03;;;;;;;;;;4877344;29;20200;-72
2023/08/21 02:36:25;;;;;;;6.07;4.43;;;;;;;;;;4889298;29;20228;-72
2023/08/21 02:38:52;;;;;;;7.10;4.60;;;;;;;;;;4891770;29;20219;-72
2023/08/21 02:41:19;;;;;;;5.37;3.90;;;;;;;;;;4890399;29;20567;-72
2023/08/21 02:43:46;;;;;;;5.30;3.60;;;;;;;;;;4892779;29;20196;-73
2023/08/21 02:46:14;;;;;;;4.47;3.17;;;;;;;;;;4891754;29;20303;-73
2023/08/21 02:48:41;;;;;;;5.17;2.90;;;;;;;;;;4893604;29;20204;-72
2023/08/21 02:51:08;;;;;;;3.33;2.60;;;;;;;;;;4892446;29;20208;-72
2023/08/21 02:53:34;;;;;;;3.30;2.53;;;;;;;;;;4893450;29;20632;-72
2023/08/21 02:56:01;;;;;;;4.17;2.87;;;;;;;;;;4890389;29;20315;-73
2023/08/21 02:58:28;;;;;;;3.90;3.20;;;;;;;;;;4890521;29;20274;-72
2023/08/21 03:00:55;;;;;;;4.13;2.67;;;;;;;;;;4876448;29;20192;-73
2023/08/21 03:03:22;;;;;;;4.50;3.00;;;;;;;;;;4890248;29;20564;-72
2023/08/21 03:05:49;;;;;;;4.13;2.57;;;;;;;;;;4894947;29;20199;-72
2023/08/21 03:08:16;;;;;;;3.10;2.60;;;;;;;;;;4893485;29;20196;-73
2023/08/21 03:10:43;;;;;;;3.40;2.57;;;;;;;;;;4875259;29;20205;-73
2023/08/21 03:13:27;;;;;;;3.10;2.57;;;;;;;;;;4888538;29;20651;-73
2023/08/21 03:15:54;;;;;;;3.67;2.80;;;;;;;;;;4868226;29;20754;-74
2023/08/21 03:18:21;;;;;;;3.20;2.40;;;;;;;;;;4882377;29;20974;-74
2023/08/21 03:20:48;;;;;;;3.13;2.73;;;;;;;;;;4889464;29;20204;-73
2023/08/21 03:23:15;;;;;;;3.33;2.73;;;;;;;;;;4906389;29;20208;-74
2023/08/21 03:25:43;;;;;;;4.37;3.43;;;;;;;;;;4891205;29;20203;-73
2023/08/21 03:28:11;;;;;;;5.13;3.00;;;;;;;;;;4869294;29;20193;-73
2023/08/21 03:30:39;;;;;;;4.43;2.60;;;;;;;;;;4885965;29;20200;-73
2023/08/21 03:33:24;;;;;;;3.27;2.53;;;;;;;;;;4873798;29;20185;-75
2023/08/21 03:35:53;;;;;;;2.83;2.27;;;;;;;;;;4888356;29;20192;-73
2023/08/21 03:38:22;;;;;;;4.37;2.90;;;;;;;;;;4890229;29;20216;-73
2023/08/21 03:40:49;;;;;;;3.27;2.27;;;;;;;;;;4890462;29;20200;-73
2023/08/21 03:43:16;;;;;;;3.70;2.33;;;;;;;;;;4889442;29;20271;-75
2023/08/21 03:45:43;;;;;;;5.33;2.57;;;;;;;;;;4870614;29;20616;-74
2023/08/21 03:48:13;;;;;;;4.70;2.60;;;;;;;;;;4890728;29;20299;-74
2023/08/21 03:50:40;;;;;;;5.23;2.87;;;;;;;;;;4890174;29;20192;-73
2023/08/21 03:53:07;;;;;;;3.27;2.80;;;;;;;;;;4891150;29;20212;-74
2023/08/21 03:55:34;;;;;;;4.63;2.63;;;;;;;;;;4890324;29;20187;-73
2023/08/21 03:58:01;;;;;;;4.07;2.87;;;;;;;;;;4884537;29;20252;-73
2023/08/21 04:00:45;;;;;;;3.33;2.87;;;;;;;;;;4886998;29;20532;-74
2023/08/21 04:03:12;;;;;;;4.60;2.90;;;;;;;;;;4890198;29;20196;-73
2023/08/21 04:05:56;;;;;;;3.77;2.53;;;;;;;;;;4873967;29;20659;-75
2023/08/21 04:08:23;;;;;;;5.90;2.93;;;;;;;;;;4880559;29;20203;-76
2023/08/21 04:10:52;;;;;;;4.23;2.80;;;;;;;;;;4889638;29;20279;-74
2023/08/21 04:13:20;;;;;;;6.57;3.53;;;;;;;;;;4886905;29;20604;-76
2023/08/21 04:15:48;;;;;;;5.17;3.30;;;;;;;;;;4870047;29;20192;-76
2023/08/21 04:18:15;;;;;;;7.20;4.00;;;;;;;;;;4891846;29;20271;-76
2023/08/21 04:20:57;;;;;;;5.57;3.47;;;;;;;;;;4875360;29;20226;-75
2023/08/21 04:23:24;;;;;;;7.17;4.00;;;;;;;;;;4889692;29;20600;-75
2023/08/21 04:25:51;;;;;;;8.20;4.27;;;;;;;;;;4873057;29;20200;-75
2023/08/21 04:28:18;;;;;;;6.23;3.57;;;;;;;;;;4874577;29;20208;-74
2023/08/21 04:30:45;;;;;;;7.73;4.97;;;;;;;;;;4872791;29;20294;-73
2023/08/21 04:33:12;;;;;;;5.73;4.30;;;;;;;;;;4890851;29;20852;-75
2023/08/21 04:35:39;;;;;;;8.57;5.60;;;;;;;;;;4889895;29;20208;-72
2023/08/21 04:38:07;;;;;;;5.90;4.13;;;;;;;;;;4890406;29;20247;-74
2023/08/21 04:40:34;;;;;;;9.67;5.40;;;;;;;;;;4890424;29;20564;-74
2023/08/21 04:43:01;;;;;;;8.40;5.23;;;;;;;;;;4890160;29;20207;-74
2023/08/21 04:45:28;;;;;;;7.43;4.50;;;;;;;;;;4872485;29;20285;-74
2023/08/21 04:47:55;;;;;;;9.37;5.00;;;;;;;;;;4885223;29;20203;-74
2023/08/21 04:50:24;;;;;;;8.17;4.90;;;;;;;;;;4864163;29;20279;-73
2023/08/21 04:52:51;;;;;;;10.77;5.63;;;;;;;;;;4863729;29;20276;-75
2023/08/21 04:55:18;;;;;;;7.83;4.80;;;;;;;;;;4881756;29;20755;-73
2023/08/21 04:57:46;;;;;;;6.33;4.80;;;;;;;;;;4890261;29;20227;-73
2023/08/21 05:00:31;;;;;;;8.77;4.80;;;;;;;;;;4877862;29;20209;-73
2023/08/21 05:02:58;;;;;;;8.27;5.00;;;;;;;;;;4888984;29;20204;-73
2023/08/21 05:05:51;;;;;;;7.87;5.00;;;;;;;;;;4874984;29;20208;-72
2023/08/21 05:08:19;;;;;;;9.47;5.43;;;;;;;;;;4875176;29;20211;-72
2023/08/21 05:10:45;;;;;;;9.20;5.67;;;;;;;;;;4886485;29;20193;-72
2023/08/21 05:13:14;;;;;;;9.90;4.53;;;;;;;;;;4882521;29;20580;-72
2023/08/21 05:15:41;;;;;;;8.57;4.93;;;;;;;;;;4899257;29;20315;-72
2023/08/21 05:18:08;;;;;;;10.17;5.37;;;;;;;;;;4890508;29;20275;-73
2023/08/21 05:20:35;;;;;;;8.73;5.30;;;;;;;;;;4885738;29;20205;-72
2023/08/21 05:23:04;;;;;;;10.13;5.13;;;;;;;;;;4870305;29;20219;-72
2023/08/21 05:25:32;;;;;;;9.37;4.87;;;;;;;;;;4885782;29;20201;-73
2023/08/21 05:27:58;;;;;;;11.93;5.67;;;;;;;;;;4891418;29;20295;-72
2023/08/21 05:30:25;;;;;;;12.53;5.30;;;;;;;;;;4889159;29;20219;-73
2023/08/21 05:32:52;;;;;;;8.27;5.37;;;;;;;;;;4905923;29;20236;-73
2023/08/21 05:35:19;;;;;;;10.93;4.80;;;;;;;;;;4886404;29;20283;-73
2023/08/21 05:37:45;;;;;;;9.73;5.00;;;;;;;;;;4880365;29;20628;-72
2023/08/21 05:40:12;;;;;;;9.57;4.77;;;;;;;;;;4890133;29;20253;-72
2023/08/21 05:42:39;;;;;;;8.63;4.57;;;;;;;;;;4886844;29;20287;-72
2023/08/21 05:45:06;;;;;;;8.90;4.20;;;;;;;;;;4887154;29;20237;-72
2023/08/21 05:47:34;;;;;;;6.67;4.53;;;;;;;;;;4905076;29;20204;-72
2023/08/21 05:50:01;;;;;;;7.00;3.97;;;;;;;;;;4890548;29;20204;-72
2023/08/21 05:52:29;;;;;;;9.90;4.97;;;;;;;;;;4872064;29;20252;-72
2023/08/21 05:55:13;;;;;;;10.40;4.40;;;;;;;;;;4881014;29;20207;-72
2023/08/21 05:57:40;;;;;;;7.03;4.13;;;;;;;;;;4893148;29;20240;-73
2023/08/21 06:00:10;;;;;;;9.87;4.40;;;;;;;;;;4877210;29;20214;-72
2023/08/21 06:02:42;;;;;;;9.20;4.00;;;;;;;;;;4894918;29;20242;-72
2023/08/21 06:05:18;;;;;;;8.50;4.40;;;;;;;;;;4892618;29;20252;-72
2023/08/21 06:07:50;;;;;;;8.77;4.27;;;;;;;;;;4875912;29;20231;-73
2023/08/21 06:10:16;;;;;;;7.03;4.00;;;;;;;;;;4891307;29;20223;-73
2023/08/21 06:12:43;;;;;;;8.67;4.57;;;;;;;;;;4874117;29;20636;-72
2023/08/21 06:15:10;;;;;;;8.77;3.60;;;;;;;;;;4859836;29;20204;-72
2023/08/21 06:17:38;;;;;;;7.33;3.93;;;;;;;;;;4887626;29;20226;-72
2023/08/21 06:20:05;;;;;;;6.70;4.07;;;;;;;;;;4894494;29;20275;-72
2023/08/21 06:22:32;;;;;;;7.90;4.30;;;;;;;;;;4893296;29;20204;-72
2023/08/21 06:24:59;;;;;;;9.10;4.43;;;;;;;;;;4891614;29;20634;-72
2023/08/21 06:27:26;;;;;;;7.73;4.20;;;;;;;;;;4873651;29;20197;-73
2023/08/21 06:29:53;;;;;;;8.20;4.47;;;;;;;;;;4876797;29;20193;-72
2023/08/21 06:32:19;;;;;;;9.27;4.60;;;;;;;;;;4893220;29;20279;-72
2023/08/21 06:34:47;;;;;;;10.20;4.53;;;;;;;;;;4892337;29;20212;-72
2023/08/21 06:37:14;;;;;;;9.17;4.23;;;;;;;;;;4894584;29;20243;-72
2023/08/21 06:39:41;;;;;;;7.70;3.97;;;;;;;;;;4894016;29;20208;-72
2023/08/21 06:42:07;;;;;;;9.57;4.00;;;;;;;;;;4889981;29;20197;-72
2023/08/21 06:44:40;;;;;;;7.63;4.13;;;;;;;;;;4891670;29;20232;-73
2023/08/21 06:47:07;;;;;;;8.70;3.60;;;;;;;;;;4893523;29;20201;-72
2023/08/21 06:49:34;;;;;;;8.37;4.17;;;;;;;;;;4892098;29;20215;-72
2023/08/21 06:52:02;;;;;;;8.30;4.03;;;;;;;;;;4889892;29;20201;-72
2023/08/21 06:54:29;;;;;;;10.60;3.90;;;;;;;;;;4888269;29;20207;-72
2023/08/21 06:56:56;;;;;;;7.50;3.90;;;;;;;;;;4889610;29;20207;-72
2023/08/21 06:59:22;;;;;;;8.93;4.07;;;;;;;;;;4893604;29;20196;-73
2023/08/21 07:02:07;;;;;;;7.63;3.30;;;;;;;;;;4879575;29;20188;-73
2023/08/21 07:04:34;;;;;;;8.00;3.17;;;;;;;;;;4893729;29;20609;-72
2023/08/21 07:07:01;;;;;;;7.07;2.57;;;;;;;;;;4893295;29;20196;-73
2023/08/21 07:09:27;;;;;;;5.43;2.57;;;;;;;;;;4907360;29;20196;-72
2023/08/21 07:11:55;;;;;;;5.53;2.40;;;;;;;;;;4892684;29;20196;-73
2023/08/21 07:14:22;;;;;;;4.90;2.57;;;;;;;;;;4892041;29;20275;-72
2023/08/21 07:16:48;;;;;;;6.50;2.60;;;;;;;;;;4892034;29;20224;-72
2023/08/21 07:19:16;;;;;;;6.30;2.43;;;;;;;;;;4890654;29;20232;-72
2023/08/21 07:21:45;;;;;;;7.10;2.10;;;;;;;;;;4890778;29;20291;-72
2023/08/21 07:24:12;;;;;;;6.90;2.70;;;;;;;;;;4892535;29;20203;-72
2023/08/21 07:26:39;;;;;;;5.03;2.40;;;;;;;;;;4892030;29;20199;-73
2023/08/21 07:29:06;;;;;;;3.97;2.40;;;;;;;;;;4892166;29;20195;-73
2023/08/21 07:31:32;;;;;;;5.67;1.93;;;;;;;;;;4892125;29;20203;-73
2023/08/21 07:33:59;;;;;;;5.50;2.10;;;;;;;;;;4891194;29;20195;-73
2023/08/21 07:36:43;;;;;;;6.50;2.37;;;;;;;;;;4892210;29;20238;-72
2023/08/21 07:39:10;;;;;;;6.23;2.37;;;;;;;;;;4889963;29;20782;-73
2023/08/21 07:41:54;;;;;;;6.40;2.37;;;;;;;;;;4890608;29;20217;-72
2023/08/21 07:44:21;;;;;;;4.93;2.03;;;;;;;;;;4892154;29;20299;-73
2023/08/21 07:46:50;;;;;;;4.40;2.03;;;;;;;;;;4893456;29;20280;-73
2023/08/21 07:49:17;;;;;;;4.97;1.90;;;;;;;;;;4891907;29;20192;-73
2023/08/21 07:51:44;;;;;;;7.67;2.20;;;;;;;;;;4890038;29;20282;-72
2023/08/21 07:54:11;;;;;;;7.73;2.37;;;;;;;;;;4872801;29;20201;-72
2023/08/21 07:56:40;;;;;;;6.00;2.17;;;;;;;;;;4881016;29;20188;-73
2023/08/21 07:59:07;;;;;;;3.63;1.90;;;;;;;;;;4887144;29;20216;-73
2023/08/21 08:01:34;;;;;;;5.10;1.97;;;;;;;;;;4892022;29;20204;-73
2023/08/21 08:04:01;;;;;;;4.53;1.80;;;;;;;;;;4890742;29;20203;-73
2023/08/21 08:06:28;;;;;;;5.90;2.07;;;;;;;;;;4892738;29;20192;-73
2023/08/21 08:08:55;;;;;;;3.13;1.63;;;;;;;;;;4893669;29;20199;-73
2023/08/21 08:11:22;;;;;;;4.17;1.70;;;;;;;;;;4891710;29;20200;-73
2023/08/21 08:13:48;;;;;;;3.30;1.80;;;;;;;;;;4889329;29;20204;-73
2023/08/21 08:16:16;;;;;;;3.40;1.70;;;;;;;;;;4890428;29;20196;-73
2023/08/21 08:18:43;;;;;;;3.77;1.63;;;;;;;;;;4882859;29;20326;-73
2023/08/21 08:21:10;;;;;;;2.77;1.70;;;;;;;;;;4892530;29;20231;-72
2023/08/21 08:23:38;;;;;;;4.97;1.90;;;;;;;;;;4891017;29;20212;-72
2023/08/21 08:26:05;;;;;;;4.07;1.70;;;;;;;;;;4890717;29;20196;-73
2023/08/21 08:28:32;;;;;;;5.03;1.70;;;;;;;;;;4893599;29;20196;-72
2023/08/21 08:31:00;;;;;;;4.73;2.00;;;;;;;;;;4890366;29;20203;-72
2023/08/21 08:33:27;;;;;;;7.47;2.10;;;;;;;;;;4890355;29;20188;-73
2023/08/21 08:35:54;;;;;;;6.70;2.23;;;;;;;;;;4893370;29;20563;-73
2023/08/21 08:38:20;;;;;;;3.93;1.63;;;;;;;;;;4892179;29;20209;-72
2023/08/21 08:40:47;;;;;;;5.27;1.93;;;;;;;;;;4892422;29;20560;-73
2023/08/21 08:43:14;;;;;;;4.40;1.90;;;;;;;;;;4891914;29;20321;-72
2023/08/21 08:45:41;;;;;;;5.30;2.10;;;;;;;;;;4890350;29;20264;-73
2023/08/21 08:48:08;;;;;;;3.57;1.60;;;;;;;;;;4888502;29;20198;-73
2023/08/21 08:50:36;;;;;;;2.90;1.60;;;;;;;;;;4876435;29;20215;-73
2023/08/21 08:53:03;;;;;;;4.67;1.77;;;;;;;;;;4879819;29;20348;-73
2023/08/21 08:55:42;;;;;;;4.03;1.60;;;;;;;;;;4893427;29;20898;-73
2023/08/21 08:58:09;;;;;;;8.13;1.83;;;;;;;;;;4907360;29;20311;-72
2023/08/21 09:00:37;;;;;;;3.17;1.60;;;;;;;;;;4907594;29;20657;-72
2023/08/21 09:03:04;;;;;;;3.87;1.80;;;;;;;;;;4891820;29;20196;-70
2023/08/21 09:05:49;;;;;;;5.03;1.97;;;;;;;;;;4905320;29;20664;-73
2023/08/21 09:08:16;;;;;;;4.37;1.80;;;;;;;;;;4896850;29;20208;-73
2023/08/21 09:10:45;;;;;;;4.17;1.87;;;;;;;;;;4885782;29;20675;-73
2023/08/21 09:13:16;;;;;;;4.07;1.90;;;;;;;;;;4881835;29;20204;-73
2023/08/21 09:15:44;;;;;;;4.10;2.03;;;;;;;;;;4890421;29;20208;-73
2023/08/21 09:18:11;;;;;;;2.03;1.30;;;;;;;;;;4892000;29;20211;-73
2023/08/21 09:20:38;;;;;;;4.77;1.87;;;;;;;;;;4884750;29;20289;-73
2023/08/21 09:23:05;;;;;;;4.40;1.40;;;;;;;;;;4891160;29;20185;-73
2023/08/21 09:25:41;;;;;;;3.13;1.47;;;;;;;;;;4886894;29;20208;-73
2023/08/21 09:28:25;;;;;;;4.60;1.90;;;;;;;;;;4892218;29;20254;-73
2023/08/21 09:30:53;;;;;;;3.70;1.70;;;;;;;;;;4893313;29;20208;-73
2023/08/21 09:33:21;;;;;;;4.03;1.73;;;;;;;;;;4895980;29;20192;-73
2023/08/21 09:35:48;;;;;;;3.80;1.50;;;;;;;;;;4894778;29;20202;-72
2023/08/21 09:38:15;;;;;;;3.17;1.47;;;;;;;;;;4903185;29;20961;-73
2023/08/21 09:40:43;;;;;;;5.43;1.87;;;;;;;;;;4886726;29;20200;-73
2023/08/21 09:43:11;;;;;;;3.77;1.53;;;;;;;;;;4889271;29;20236;-72
2023/08/21 09:45:38;;;;;;;6.47;1.50;;;;;;;;;;4896560;29;20246;-72
2023/08/21 09:48:06;;;;;;;3.93;1.37;;;;;;;;;;4877113;29;20287;-73
2023/08/21 09:50:34;;;;;;;2.90;1.40;;;;;;;;;;4897507;29;20184;-73
2023/08/21 09:53:02;;;;;;;2.87;1.23;;;;;;;;;;4899032;29;20974;-73
2023/08/21 09:55:31;;;;;;;4.73;1.57;;;;;;;;;;4895284;29;20203;-72
2023/08/21 09:58:01;;;;;;;6.67;1.87;;;;;;;;;;4897069;29;20299;-70
2023/08/21 10:00:32;;;;;;;2.77;1.30;;;;;;;;;;4899143;29;20273;-70
2023/08/21 10:03:00;;;;;;;5.50;1.40;;;;;;;;;;4891290;29;20209;-73
2023/08/21 10:05:29;;;;;;;7.63;1.60;;;;;;;;;;4906332;29;20275;-72
2023/08/21 10:07:57;;;;;;;6.43;1.63;;;;;;;;;;4912267;29;20206;-73
2023/08/21 10:10:24;;;;;;;2.47;1.30;;;;;;;;;;4912688;29;20227;-73
2023/08/21 10:12:51;;;;;;;7.00;1.43;;;;;;;;;;4892133;29;20221;-70
2023/08/21 10:15:18;;;;;;;2.17;0.93;;;;;;;;;;4892666;29;20203;-72
2023/08/21 10:17:46;;;;;;;3.50;1.30;;;;;;;;;;4893945;29;20209;-72
2023/08/21 10:20:13;;;;;;;5.60;1.57;;;;;;;;;;4892357;29;20208;-73
2023/08/21 10:22:46;;;;;;;3.87;1.40;;;;;;;;;;4900278;29;20591;-71
2023/08/21 10:25:21;;;;;;;2.97;1.63;;;;;;;;;;4916597;29;20669;-71
2023/08/21 10:27:49;;;;;;;2.90;1.10;;;;;;;;;;4893189;29;20207;-71
2023/08/21 10:30:19;;;;;;;4.67;1.30;;;;;;;;;;4903153;29;20192;-71
2023/08/21 10:32:47;;;;;;;3.27;1.30;;;;;;;;;;4892919;29;20556;-71
2023/08/21 10:35:15;;;;;;;5.00;1.40;;;;;;;;;;4899704;29;20227;-70
2023/08/21 10:38:02;;;;;;;3.67;1.47;;;;;;;;;;4894891;29;20230;-71
2023/08/21 10:40:29;;;;;;;5.83;1.70;;;;;;;;;;4892348;29;20204;-70
2023/08/21 10:42:56;;;;;;;2.40;1.43;;;;;;;;;;4894130;29;20188;-72
2023/08/21 10:45:23;;;;;;;4.90;1.30;;;;;;;;;;4880521;29;20227;-70
2023/08/21 10:47:50;;;;;;;5.60;1.93;;;;;;;;;;4884137;29;20207;-72
2023/08/21 10:50:18;;;;;;;4.37;1.47;;;;;;;;;;4886057;29;20241;-71
2023/08/21 10:52:45;;;;;;;4.60;1.77;;;;;;;;;;4888322;29;20192;-70
2023/08/21 10:55:12;;;;;;;4.07;1.50;;;;;;;;;;4873279;29;20637;-70
2023/08/21 10:57:41;;;;;;;4.93;2.30;;;;;;;;;;4891031;29;20521;-70
2023/08/21 11:00:11;;;;;;;4.97;2.10;;;;;;;;;;4890780;29;20223;-70
2023/08/21 11:02:39;;;;;;;2.77;1.50;;;;;;;;;;4890386;29;20664;-70
2023/08/21 11:05:07;;;;;;;3.20;1.20;;;;;;;;;;4890675;29;20582;-71
2023/08/21 11:07:53;;;;;;;4.33;1.60;;;;;;;;;;4874968;29;20189;-71
2023/08/21 11:10:23;;;;;;;5.40;1.60;;;;;;;;;;4886859;29;20195;-74
2023/08/21 11:12:50;;;;;;;6.27;1.37;;;;;;;;;;4884716;29;20848;-73
2023/08/21 11:15:17;;;;;;;3.70;1.40;;;;;;;;;;4888791;29;20231;-73
2023/08/21 11:17:58;;;;;;;3.77;1.13;;;;;;;;;;4888025;29;20300;-73
2023/08/21 11:20:29;;;;;;;3.50;1.40;;;;;;;;;;4887641;29;20272;-75
2023/08/21 11:23:05;;;;;;;4.53;1.50;;;;;;;;;;4858282;29;20608;-73
2023/08/21 11:25:33;;;;;;;7.50;1.60;;;;;;;;;;4881276;29;20223;-73
2023/08/21 11:28:04;;;;;;;4.93;1.13;;;;;;;;;;4882736;29;20200;-73
2023/08/21 11:30:32;;;;;;;6.13;1.50;;;;;;;;;;4892577;29;20248;-73
2023/08/21 11:33:06;;;;;;;3.00;1.10;;;;;;;;;;4909621;29;20259;-73
2023/08/21 11:35:34;;;;;;;5.83;1.60;;;;;;;;;;4888199;29;20987;-75
2023/08/21 11:38:05;;;;;;;4.83;1.70;;;;;;;;;;4889778;29;20658;-73
2023/08/21 11:40:35;;;;;;;3.37;1.60;;;;;;;;;;4889394;29;20718;-73
2023/08/21 11:43:03;;;;;;;4.30;1.90;;;;;;;;;;4884359;29;20852;-74
2023/08/21 11:45:30;;;;;;;3.77;1.20;;;;;;;;;;4869058;29;20787;-73
2023/08/21 11:48:11;;;;;;;8.27;1.20;;;;;;;;;;4889523;29;20696;-73
2023/08/21 11:50:39;;;;;;;2.20;1.10;;;;;;;;;;4872453;29;20204;-73
2023/08/21 11:53:06;;;;;;;5.43;1.10;;;;;;;;;;4881234;29;20287;-75
2023/08/21 11:55:34;;;;;;;5.13;1.30;;;;;;;;;;4891857;29;20295;-73
2023/08/21 11:58:01;;;;;;;3.40;1.20;;;;;;;;;;4890027;29;21080;-73
2023/08/21 12:00:30;;;;;;;4.10;1.30;;;;;;;;;;4894482;29;20275;-73
2023/08/21 12:03:00;;;;;;;5.23;1.50;;;;;;;;;;4892716;29;20267;-74
2023/08/21 12:05:27;;;;;;;2.90;1.20;;;;;;;;;;4876302;29;20196;-73
2023/08/21 12:07:55;;;;;;;5.87;1.20;;;;;;;;;;4889085;29;20260;-74
2023/08/21 12:10:26;;;;;;;2.83;1.17;;;;;;;;;;4887075;29;20200;-73
2023/08/21 12:13:10;;;;;;;3.30;1.00;;;;;;;;;;4888579;29;20691;-75
2023/08/21 12:15:37;;;;;;;6.00;1.20;;;;;;;;;;4880590;29;20319;-74
2023/08/21 12:18:04;;;;;;;3.57;1.23;;;;;;;;;;4885848;29;20192;-74
2023/08/21 12:20:31;;;;;;;3.77;0.93;;;;;;;;;;4887191;29;20219;-75
2023/08/21 12:22:58;;;;;;;6.87;1.27;;;;;;;;;;4887364;29;20755;-73
2023/08/21 12:25:25;;;;;;;5.37;1.50;;;;;;;;;;4888808;29;20273;-73
2023/08/21 12:27:55;;;;;;;4.63;1.33;;;;;;;;;;4887954;29;20275;-74
2023/08/21 12:30:35;;;;;;;6.30;1.67;;;;;;;;;;4871308;29;20207;-74
2023/08/21 12:33:02;;;;;;;11.67;2.03;;;;;;;;;;4891985;29;20274;-74
2023/08/21 12:35:48;;;;;;;6.70;1.60;;;;;;;;;;4884928;29;20247;-75
2023/08/21 12:38:16;;;;;;;8.23;1.90;;;;;;;;;;4865569;29;20657;-74
2023/08/21 12:40:43;;;;;;;4.83;1.50;;;;;;;;;;4887530;29;20203;-75
2023/08/21 12:43:10;;;;;;;3.80;1.20;;;;;;;;;;4890113;29;20203;-74
2023/08/21 12:45:56;;;;;;;6.47;1.37;;;;;;;;;;4891278;28;20246;-75
2023/08/21 12:48:23;;;;;;;5.63;1.57;;;;;;;;;;4885517;29;20226;-74
2023/08/21 12:50:50;;;;;;;5.87;1.50;;;;;;;;;;4887933;29;20192;-75
2023/08/21 12:53:17;;;;;;;4.00;1.50;;;;;;;;;;4887528;29;20674;-74
2023/08/21 12:55:44;;;;;;;4.03;1.70;;;;;;;;;;4886631;29;20192;-74
2023/08/21 12:58:13;;;;;;;4.33;1.30;;;;;;;;;;4887597;29;20279;-74
2023/08/21 13:00:40;;;;;;;3.23;1.40;;;;;;;;;;4886720;29;20220;-73
2023/08/21 13:03:08;;;;;;;3.40;1.40;;;;;;;;;;4890217;29;20206;-73
2023/08/21 13:05:35;;;;;;;4.40;1.03;;;;;;;;;;4894698;29;20196;-74
2023/08/21 13:08:03;;;;;;;4.57;1.17;;;;;;;;;;4876518;29;20921;-73
2023/08/21 13:10:33;;;;;;;4.70;1.10;;;;;;;;;;4895607;29;20207;-72
2023/08/21 13:13:00;;;;;;;4.87;1.30;;;;;;;;;;4894837;29;20735;-73
2023/08/21 13:15:28;;;;;;;2.93;1.20;;;;;;;;;;4886924;29;20968;-74
2023/08/21 13:17:55;;;;;;;4.57;1.30;;;;;;;;;;4915322;29;20194;-74
2023/08/21 13:20:22;;;;;;;6.20;1.53;;;;;;;;;;4896617;29;20303;-74
2023/08/21 13:22:51;;;;;;;5.47;1.30;;;;;;;;;;4894199;29;20196;-74
2023/08/21 13:25:21;;;;;;;2.67;1.33;;;;;;;;;;4894004;29;20192;-74
2023/08/21 13:27:48;;;;;;;4.33;1.27;;;;;;;;;;4895283;29;20591;-75
2023/08/21 13:30:18;;;;;;;2.93;1.17;;;;;;;;;;4892921;29;20200;-74
2023/08/21 13:32:45;;;;;;;4.03;1.07;;;;;;;;;;4893781;29;20199;-74
2023/08/21 13:35:30;;;;;;;5.20;1.30;;;;;;;;;;4893304;29;20188;-75
2023/08/21 13:37:56;;;;;;;4.83;0.93;;;;;;;;;;4893892;29;20559;-75
2023/08/21 13:40:40;;;;;;;2.30;1.00;;;;;;;;;;4906470;29;20293;-75
2023/08/21 13:43:12;;;;;;;3.37;1.07;;;;;;;;;;4906619;29;20619;-74
2023/08/21 13:45:39;;;;;;;2.80;1.10;;;;;;;;;;4907417;29;20295;-74
2023/08/21 13:48:07;;;;;;;6.03;1.30;;;;;;;;;;4894460;29;20197;-74
2023/08/21 13:50:34;;;;;;;5.77;1.13;;;;;;;;;;4906302;29;20236;-74
2023/08/21 13:53:02;;;;;;;4.30;1.30;;;;;;;;;;4891267;29;20225;-74
2023/08/21 13:55:29;;;;;;;4.97;1.23;;;;;;;;;;4886802;29;20620;-73
2023/08/21 13:57:57;;;;;;;6.57;1.50;;;;;;;;;;4892879;29;20195;-73
2023/08/21 14:00:24;;;;;;;4.43;1.30;;;;;;;;;;4894494;29;20335;-74
2023/08/21 14:02:51;;;;;;;5.03;1.10;;;;;;;;;;4893048;29;20545;-74
2023/08/21 14:05:18;;;;;;;4.13;1.23;;;;;;;;;;4896747;29;20195;-74
2023/08/21 14:07:44;;;;;;;2.47;1.00;;;;;;;;;;4894281;29;20196;-75
2023/08/21 14:10:14;;;;;;;3.93;1.20;;;;;;;;;;4894477;29;20283;-73
2023/08/21 14:12:41;;;;;;;6.50;1.20;;;;;;;;;;4893485;29;21038;-73
2023/08/21 14:15:08;;;;;;;4.33;1.10;;;;;;;;;;4880063;29;20255;-70
2023/08/21 14:17:35;;;;;;;3.50;1.07;;;;;;;;;;4892586;29;20200;-73
2023/08/21 14:20:03;;;;;;;4.13;1.40;;;;;;;;;;4893822;29;20231;-73
2023/08/21 14:22:30;;;;;;;4.27;1.00;;;;;;;;;;4894171;29;20299;-73
2023/08/21 14:25:00;;;;;;;4.90;1.10;;;;;;;;;;4892785;29;20314;-73
2023/08/21 14:27:29;;;;;;;4.13;1.17;;;;;;;;;;4894359;29;20283;-72
2023/08/21 14:29:57;;;;;;;2.83;1.20;;;;;;;;;;4891826;29;20224;-73
2023/08/21 14:32:24;;;;;;;4.00;1.50;;;;;;;;;;4892625;29;20279;-77
2023/08/21 14:34:53;;;;;;;4.43;1.30;;;;;;;;;;4892495;29;21018;-73
2023/08/21 14:37:20;;;;;;;5.00;1.20;;;;;;;;;;4893046;29;20199;-73
2023/08/21 14:39:47;;;;;;;6.40;1.40;;;;;;;;;;4893824;29;20212;-75
2023/08/21 14:42:14;;;;;;;3.93;1.27;;;;;;;;;;4890694;29;20561;-75
2023/08/21 14:44:42;;;;;;;4.70;1.20;;;;;;;;;;4893300;29;20271;-76
2023/08/21 14:47:09;;;;;;;4.73;1.13;;;;;;;;;;4906858;29;20219;-75
2023/08/21 14:49:36;;;;;;;3.50;1.20;;;;;;;;;;4893408;29;20192;-76
2023/08/21 14:52:04;;;;;;;4.20;1.10;;;;;;;;;;4891676;29;20252;-75
2023/08/21 14:54:32;;;;;;;4.70;1.30;;;;;;;;;;4889269;29;20226;-75
2023/08/21 14:56:59;;;;;;;3.23;1.00;;;;;;;;;;4888686;29;20196;-76
2023/08/21 14:59:26;;;;;;;5.37;1.37;;;;;;;;;;4891795;29;20226;-77
2023/08/21 15:01:55;;;;;;;3.00;1.33;;;;;;;;;;4893257;29;20196;-79
2023/08/21 15:04:25;;;;;;;4.93;0.90;;;;;;;;;;4881026;29;20196;-85
2023/08/21 15:09:42;;;;;;;3.70;0.97;;;;;;;;;;4893809;29;20189;-77
2023/08/21 15:12:10;;;;;;;2.87;1.07;;;;;;;;;;4894138;29;20227;-77
2023/08/21 15:14:38;;;;;;;2.90;1.30;;;;;;;;;;4892550;29;20697;-75
2023/08/21 15:17:28;;;;;;;4.10;1.33;;;;;;;;;;4875269;29;20635;-78
2023/08/21 15:19:57;;;;;;;3.77;1.20;;;;;;;;;;4885387;29;20885;-76
2023/08/21 15:22:24;;;;;;;5.73;1.33;;;;;;;;;;4865588;29;20192;-76
2023/08/21 15:24:51;;;;;;;5.07;1.20;;;;;;;;;;4891685;29;20206;-77
2023/08/21 15:27:18;;;;;;;3.50;1.30;;;;;;;;;;4893919;29;20274;-77
2023/08/21 15:29:45;;;;;;;2.70;1.40;;;;;;;;;;4893714;29;20199;-75
2023/08/21 15:32:13;;;;;;;4.10;1.40;;;;;;;;;;4892895;29;20190;-76